sensor_id;sensor_type;location;lat;lon;timestamp;P1;durP1;ratioP1;P2;durP2;ratioP2
34505;SDS011;20748;42.632;23.198;2023-04-07T00:00:21;13.00;;;5.72;;
34505;SDS011;20748;42.632;23.198;2023-04-07T00:02:53;11.23;;;6.43;;
34505;SDS011;20748;42.632;23.198;2023-04-07T00:05:26;11.48;;;5.93;;
34505;SDS011;20748;42.632;23.198;2023-04-07T00:07:58;9.02;;;5.18;;
34505;SDS011;20748;42.632;23.198;2023-04-07T00:10:31;14.43;;;6.88;;
34505;SDS011;20748;42.632;23.198;2023-04-07T00:13:04;12.93;;;6.65;;
34505;SDS011;20748;42.632;23.198;2023-04-07T00:15:36;16.27;;;6.25;;
34505;SDS011;20748;42.632;23.198;2023-04-07T00:18:09;9.27;;;5.68;;
34505;SDS011;20748;42.632;23.198;2023-04-07T00:20:41;6.05;;;4.93;;
34505;SDS011;20748;42.632;23.198;2023-04-07T00:23:13;16.52;;;6.00;;
34505;SDS011;20748;42.632;23.198;2023-04-07T00:25:46;12.52;;;5.65;;
34505;SDS011;20748;42.632;23.198;2023-04-07T00:28:19;11.35;;;5.88;;
34505;SDS011;20748;42.632;23.198;2023-04-07T00:30:52;10.65;;;5.43;;
34505;SDS011;20748;42.632;23.198;2023-04-07T00:33:24;11.52;;;5.00;;
34505;SDS011;20748;42.632;23.198;2023-04-07T00:35:57;10.23;;;5.05;;
34505;SDS011;20748;42.632;23.198;2023-04-07T00:38:29;13.55;;;5.28;;
34505;SDS011;20748;42.632;23.198;2023-04-07T00:41:02;8.95;;;4.20;;
34505;SDS011;20748;42.632;23.198;2023-04-07T00:43:35;11.90;;;5.70;;
34505;SDS011;20748;42.632;23.198;2023-04-07T00:46:07;11.38;;;6.10;;
34505;SDS011;20748;42.632;23.198;2023-04-07T00:48:40;15.68;;;5.95;;
34505;SDS011;20748;42.632;23.198;2023-04-07T00:51:12;12.98;;;5.78;;
34505;SDS011;20748;42.632;23.198;2023-04-07T00:53:45;12.63;;;5.22;;
34505;SDS011;20748;42.632;23.198;2023-04-07T00:56:18;13.82;;;6.95;;
34505;SDS011;20748;42.632;23.198;2023-04-07T00:58:51;13.15;;;6.63;;
34505;SDS011;20748;42.632;23.198;2023-04-07T01:01:23;14.15;;;5.53;;
34505;SDS011;20748;42.632;23.198;2023-04-07T01:04:04;13.73;;;6.20;;
34505;SDS011;20748;42.632;23.198;2023-04-07T01:06:43;9.75;;;4.68;;
34505;SDS011;20748;42.632;23.198;2023-04-07T01:09:20;9.25;;;5.28;;
34505;SDS011;20748;42.632;23.198;2023-04-07T01:11:58;13.65;;;5.38;;
34505;SDS011;20748;42.632;23.198;2023-04-07T01:14:40;7.78;;;4.70;;
34505;SDS011;20748;42.632;23.198;2023-04-07T01:17:36;11.32;;;5.18;;
34505;SDS011;20748;42.632;23.198;2023-04-07T01:20:11;14.48;;;5.22;;
34505;SDS011;20748;42.632;23.198;2023-04-07T01:22:50;11.15;;;5.78;;
34505;SDS011;20748;42.632;23.198;2023-04-07T01:25:30;10.55;;;5.10;;
34505;SDS011;20748;42.632;23.198;2023-04-07T01:28:30;7.07;;;3.72;;
34505;SDS011;20748;42.632;23.198;2023-04-07T01:31:13;8.93;;;3.85;;
34505;SDS011;20748;42.632;23.198;2023-04-07T01:33:47;8.43;;;4.95;;
34505;SDS011;20748;42.632;23.198;2023-04-07T01:36:21;9.57;;;5.13;;
34505;SDS011;20748;42.632;23.198;2023-04-07T01:38:55;10.98;;;5.20;;
34505;SDS011;20748;42.632;23.198;2023-04-07T01:41:30;14.15;;;7.60;;
34505;SDS011;20748;42.632;23.198;2023-04-07T01:44:03;13.43;;;6.53;;
34505;SDS011;20748;42.632;23.198;2023-04-07T01:46:39;20.30;;;7.50;;
34505;SDS011;20748;42.632;23.198;2023-04-07T01:49:12;13.63;;;5.45;;
34505;SDS011;20748;42.632;23.198;2023-04-07T01:51:46;17.75;;;6.70;;
34505;SDS011;20748;42.632;23.198;2023-04-07T01:54:20;13.65;;;6.75;;
34505;SDS011;20748;42.632;23.198;2023-04-07T01:56:54;15.68;;;7.00;;
34505;SDS011;20748;42.632;23.198;2023-04-07T01:59:27;24.15;;;8.52;;
34505;SDS011;20748;42.632;23.198;2023-04-07T02:02:01;32.30;;;11.20;;
34505;SDS011;20748;42.632;23.198;2023-04-07T02:04:34;23.08;;;7.70;;
34505;SDS011;20748;42.632;23.198;2023-04-07T02:07:13;13.15;;;6.47;;
34505;SDS011;20748;42.632;23.198;2023-04-07T02:09:54;12.88;;;4.95;;
34505;SDS011;20748;42.632;23.198;2023-04-07T02:12:29;12.00;;;4.60;;
34505;SDS011;20748;42.632;23.198;2023-04-07T02:15:13;9.13;;;3.85;;
34505;SDS011;20748;42.632;23.198;2023-04-07T02:17:48;6.93;;;4.10;;
34505;SDS011;20748;42.632;23.198;2023-04-07T02:20:24;14.85;;;5.15;;
34505;SDS011;20748;42.632;23.198;2023-04-07T02:22:57;18.65;;;6.72;;
34505;SDS011;20748;42.632;23.198;2023-04-07T02:25:30;17.77;;;6.63;;
34505;SDS011;20748;42.632;23.198;2023-04-07T02:28:04;17.83;;;5.72;;
34505;SDS011;20748;42.632;23.198;2023-04-07T02:30:36;9.20;;;5.25;;
34505;SDS011;20748;42.632;23.198;2023-04-07T02:33:09;9.60;;;5.40;;
34505;SDS011;20748;42.632;23.198;2023-04-07T02:35:42;9.63;;;4.97;;
34505;SDS011;20748;42.632;23.198;2023-04-07T02:38:14;6.82;;;3.83;;
34505;SDS011;20748;42.632;23.198;2023-04-07T02:40:46;8.98;;;4.57;;
34505;SDS011;20748;42.632;23.198;2023-04-07T02:43:19;12.77;;;6.55;;
34505;SDS011;20748;42.632;23.198;2023-04-07T02:45:54;12.73;;;5.78;;
34505;SDS011;20748;42.632;23.198;2023-04-07T02:48:28;10.60;;;3.83;;
34505;SDS011;20748;42.632;23.198;2023-04-07T02:51:01;8.68;;;4.32;;
34505;SDS011;20748;42.632;23.198;2023-04-07T02:53:33;8.90;;;4.18;;
34505;SDS011;20748;42.632;23.198;2023-04-07T02:56:06;7.22;;;3.67;;
34505;SDS011;20748;42.632;23.198;2023-04-07T02:58:38;8.30;;;3.80;;
34505;SDS011;20748;42.632;23.198;2023-04-07T03:01:11;5.50;;;3.90;;
34505;SDS011;20748;42.632;23.198;2023-04-07T03:03:44;10.20;;;4.00;;
34505;SDS011;20748;42.632;23.198;2023-04-07T03:06:23;3.65;;;1.88;;
34505;SDS011;20748;42.632;23.198;2023-04-07T03:09:10;16.48;;;3.78;;
34505;SDS011;20748;42.632;23.198;2023-04-07T03:11:43;10.63;;;4.28;;
34505;SDS011;20748;42.632;23.198;2023-04-07T03:14:16;8.15;;;4.13;;
34505;SDS011;20748;42.632;23.198;2023-04-07T03:16:51;12.50;;;5.07;;
34505;SDS011;20748;42.632;23.198;2023-04-07T03:19:26;14.95;;;5.35;;
34505;SDS011;20748;42.632;23.198;2023-04-07T03:21:58;9.13;;;3.60;;
34505;SDS011;20748;42.632;23.198;2023-04-07T03:24:31;11.13;;;4.22;;
34505;SDS011;20748;42.632;23.198;2023-04-07T03:27:04;9.07;;;4.47;;
34505;SDS011;20748;42.632;23.198;2023-04-07T03:29:45;8.85;;;4.28;;
34505;SDS011;20748;42.632;23.198;2023-04-07T03:32:19;13.05;;;5.15;;
34505;SDS011;20748;42.632;23.198;2023-04-07T03:34:52;10.30;;;3.95;;
34505;SDS011;20748;42.632;23.198;2023-04-07T03:37:25;8.32;;;3.25;;
34505;SDS011;20748;42.632;23.198;2023-04-07T03:39:58;6.88;;;3.60;;
34505;SDS011;20748;42.632;23.198;2023-04-07T03:42:35;8.02;;;3.75;;
34505;SDS011;20748;42.632;23.198;2023-04-07T03:45:10;9.80;;;3.35;;
34505;SDS011;20748;42.632;23.198;2023-04-07T03:47:47;7.63;;;3.97;;
34505;SDS011;20748;42.632;23.198;2023-04-07T03:50:21;11.80;;;4.55;;
34505;SDS011;20748;42.632;23.198;2023-04-07T03:53:05;10.15;;;4.20;;
34505;SDS011;20748;42.632;23.198;2023-04-07T03:55:38;9.85;;;4.25;;
34505;SDS011;20748;42.632;23.198;2023-04-07T04:00:52;23.27;;;6.57;;
34505;SDS011;20748;42.632;23.198;2023-04-07T04:03:24;9.13;;;4.15;;
34505;SDS011;20748;42.632;23.198;2023-04-07T04:06:11;10.98;;;3.78;;
34505;SDS011;20748;42.632;23.198;2023-04-07T04:08:44;7.20;;;4.00;;
34505;SDS011;20748;42.632;23.198;2023-04-07T04:11:17;10.75;;;3.58;;
34505;SDS011;20748;42.632;23.198;2023-04-07T04:13:58;10.70;;;3.60;;
34505;SDS011;20748;42.632;23.198;2023-04-07T04:16:31;10.35;;;4.15;;
34505;SDS011;20748;42.632;23.198;2023-04-07T04:19:09;8.02;;;3.58;;
34505;SDS011;20748;42.632;23.198;2023-04-07T04:21:42;19.90;;;6.25;;
34505;SDS011;20748;42.632;23.198;2023-04-07T04:24:15;11.55;;;5.50;;
34505;SDS011;20748;42.632;23.198;2023-04-07T04:26:49;6.30;;;3.80;;
34505;SDS011;20748;42.632;23.198;2023-04-07T04:29:21;5.68;;;3.17;;
34505;SDS011;20748;42.632;23.198;2023-04-07T04:31:54;5.97;;;3.03;;
34505;SDS011;20748;42.632;23.198;2023-04-07T04:34:27;10.63;;;4.72;;
34505;SDS011;20748;42.632;23.198;2023-04-07T04:37:01;8.02;;;4.10;;
34505;SDS011;20748;42.632;23.198;2023-04-07T04:39:34;8.45;;;5.07;;
34505;SDS011;20748;42.632;23.198;2023-04-07T04:42:07;13.45;;;4.88;;
34505;SDS011;20748;42.632;23.198;2023-04-07T04:44:40;12.85;;;4.60;;
34505;SDS011;20748;42.632;23.198;2023-04-07T04:47:13;8.65;;;4.35;;
34505;SDS011;20748;42.632;23.198;2023-04-07T04:49:46;10.52;;;4.68;;
34505;SDS011;20748;42.632;23.198;2023-04-07T04:52:19;6.47;;;4.18;;
34505;SDS011;20748;42.632;23.198;2023-04-07T04:54:54;11.20;;;3.95;;
34505;SDS011;20748;42.632;23.198;2023-04-07T04:57:27;10.05;;;4.43;;
34505;SDS011;20748;42.632;23.198;2023-04-07T04:59:59;5.53;;;3.15;;
34505;SDS011;20748;42.632;23.198;2023-04-07T05:02:32;6.47;;;3.80;;
34505;SDS011;20748;42.632;23.198;2023-04-07T05:05:08;4.72;;;2.92;;
34505;SDS011;20748;42.632;23.198;2023-04-07T05:07:42;6.43;;;2.95;;
34505;SDS011;20748;42.632;23.198;2023-04-07T05:10:20;8.07;;;3.83;;
34505;SDS011;20748;42.632;23.198;2023-04-07T05:12:54;11.05;;;4.35;;
34505;SDS011;20748;42.632;23.198;2023-04-07T05:15:27;5.22;;;3.42;;
34505;SDS011;20748;42.632;23.198;2023-04-07T05:18:00;8.73;;;3.08;;
34505;SDS011;20748;42.632;23.198;2023-04-07T05:20:33;8.23;;;3.70;;
34505;SDS011;20748;42.632;23.198;2023-04-07T05:23:07;9.93;;;4.43;;
34505;SDS011;20748;42.632;23.198;2023-04-07T05:25:40;5.38;;;3.78;;
34505;SDS011;20748;42.632;23.198;2023-04-07T05:28:13;13.88;;;5.07;;
34505;SDS011;20748;42.632;23.198;2023-04-07T05:30:45;6.88;;;3.50;;
34505;SDS011;20748;42.632;23.198;2023-04-07T05:33:19;8.35;;;3.92;;
34505;SDS011;20748;42.632;23.198;2023-04-07T05:35:56;7.07;;;3.47;;
34505;SDS011;20748;42.632;23.198;2023-04-07T05:38:29;7.70;;;4.15;;
34505;SDS011;20748;42.632;23.198;2023-04-07T05:41:05;10.70;;;3.67;;
34505;SDS011;20748;42.632;23.198;2023-04-07T05:43:39;6.85;;;3.38;;
34505;SDS011;20748;42.632;23.198;2023-04-07T05:46:13;3.85;;;2.55;;
34505;SDS011;20748;42.632;23.198;2023-04-07T05:48:53;5.15;;;3.15;;
34505;SDS011;20748;42.632;23.198;2023-04-07T05:51:26;5.07;;;2.92;;
34505;SDS011;20748;42.632;23.198;2023-04-07T05:54:01;11.75;;;5.63;;
34505;SDS011;20748;42.632;23.198;2023-04-07T05:56:34;7.45;;;3.88;;
34505;SDS011;20748;42.632;23.198;2023-04-07T05:59:06;7.88;;;5.40;;
34505;SDS011;20748;42.632;23.198;2023-04-07T06:01:39;9.85;;;5.10;;
34505;SDS011;20748;42.632;23.198;2023-04-07T06:04:14;11.07;;;5.75;;
34505;SDS011;20748;42.632;23.198;2023-04-07T06:06:47;10.48;;;5.43;;
34505;SDS011;20748;42.632;23.198;2023-04-07T06:09:20;7.10;;;4.03;;
34505;SDS011;20748;42.632;23.198;2023-04-07T06:11:52;7.57;;;4.05;;
34505;SDS011;20748;42.632;23.198;2023-04-07T06:14:25;5.57;;;3.38;;
34505;SDS011;20748;42.632;23.198;2023-04-07T06:16:57;9.18;;;3.95;;
34505;SDS011;20748;42.632;23.198;2023-04-07T06:19:30;8.80;;;4.05;;
34505;SDS011;20748;42.632;23.198;2023-04-07T06:22:04;10.05;;;3.95;;
34505;SDS011;20748;42.632;23.198;2023-04-07T06:24:37;10.85;;;3.95;;
34505;SDS011;20748;42.632;23.198;2023-04-07T06:27:10;7.40;;;3.35;;
34505;SDS011;20748;42.632;23.198;2023-04-07T06:29:43;9.45;;;4.05;;
34505;SDS011;20748;42.632;23.198;2023-04-07T06:32:15;10.82;;;4.53;;
34505;SDS011;20748;42.632;23.198;2023-04-07T06:34:47;17.10;;;4.15;;
34505;SDS011;20748;42.632;23.198;2023-04-07T06:37:20;6.60;;;3.88;;
34505;SDS011;20748;42.632;23.198;2023-04-07T06:39:55;34.20;;;8.20;;
34505;SDS011;20748;42.632;23.198;2023-04-07T06:42:28;15.70;;;4.55;;
34505;SDS011;20748;42.632;23.198;2023-04-07T06:45:14;10.10;;;5.10;;
34505;SDS011;20748;42.632;23.198;2023-04-07T06:47:46;11.02;;;4.22;;
34505;SDS011;20748;42.632;23.198;2023-04-07T06:50:23;8.43;;;3.60;;
34505;SDS011;20748;42.632;23.198;2023-04-07T06:52:58;6.18;;;3.15;;
34505;SDS011;20748;42.632;23.198;2023-04-07T06:55:42;8.68;;;3.88;;
34505;SDS011;20748;42.632;23.198;2023-04-07T06:58:15;15.10;;;4.30;;
34505;SDS011;20748;42.632;23.198;2023-04-07T07:00:47;7.22;;;3.40;;
34505;SDS011;20748;42.632;23.198;2023-04-07T07:03:20;7.10;;;3.47;;
34505;SDS011;20748;42.632;23.198;2023-04-07T07:14:50;6.53;;;3.50;;
34505;SDS011;20748;42.632;23.198;2023-04-07T07:17:22;5.70;;;2.92;;
34505;SDS011;20748;42.632;23.198;2023-04-07T07:19:55;9.63;;;3.67;;
34505;SDS011;20748;42.632;23.198;2023-04-07T07:22:27;5.38;;;3.17;;
34505;SDS011;20748;42.632;23.198;2023-04-07T07:25:00;8.50;;;4.03;;
34505;SDS011;20748;42.632;23.198;2023-04-07T07:27:32;12.60;;;4.32;;
34505;SDS011;20748;42.632;23.198;2023-04-07T07:30:06;6.93;;;3.50;;
34505;SDS011;20748;42.632;23.198;2023-04-07T07:32:39;11.95;;;3.72;;
34505;SDS011;20748;42.632;23.198;2023-04-07T07:35:11;7.18;;;4.63;;
34505;SDS011;20748;42.632;23.198;2023-04-07T07:37:44;10.27;;;3.53;;
34505;SDS011;20748;42.632;23.198;2023-04-07T07:40:16;9.85;;;5.15;;
34505;SDS011;20748;42.632;23.198;2023-04-07T07:42:49;6.50;;;3.92;;
34505;SDS011;20748;42.632;23.198;2023-04-07T07:45:22;7.47;;;4.63;;
34505;SDS011;20748;42.632;23.198;2023-04-07T07:47:55;5.72;;;3.42;;
34505;SDS011;20748;42.632;23.198;2023-04-07T07:50:27;7.18;;;4.03;;
34505;SDS011;20748;42.632;23.198;2023-04-07T07:52:59;8.25;;;4.15;;
34505;SDS011;20748;42.632;23.198;2023-04-07T07:55:32;4.00;;;2.65;;
34505;SDS011;20748;42.632;23.198;2023-04-07T07:58:04;9.05;;;3.78;;
34505;SDS011;20748;42.632;23.198;2023-04-07T08:00:37;7.15;;;3.22;;
34505;SDS011;20748;42.632;23.198;2023-04-07T08:03:10;5.97;;;4.13;;
34505;SDS011;20748;42.632;23.198;2023-04-07T08:05:42;5.47;;;3.25;;
34505;SDS011;20748;42.632;23.198;2023-04-07T08:08:15;5.65;;;2.92;;
34505;SDS011;20748;42.632;23.198;2023-04-07T08:10:47;12.18;;;4.18;;
34505;SDS011;20748;42.632;23.198;2023-04-07T08:13:19;8.98;;;3.55;;
34505;SDS011;20748;42.632;23.198;2023-04-07T08:15:52;7.88;;;4.13;;
34505;SDS011;20748;42.632;23.198;2023-04-07T08:18:25;11.07;;;4.65;;
34505;SDS011;20748;42.632;23.198;2023-04-07T08:20:57;8.02;;;3.92;;
34505;SDS011;20748;42.632;23.198;2023-04-07T08:23:30;5.60;;;3.50;;
34505;SDS011;20748;42.632;23.198;2023-04-07T08:26:02;11.35;;;3.30;;
34505;SDS011;20748;42.632;23.198;2023-04-07T08:28:34;7.40;;;3.53;;
34505;SDS011;20748;42.632;23.198;2023-04-07T08:31:07;17.63;;;5.55;;
34505;SDS011;20748;42.632;23.198;2023-04-07T08:33:40;12.63;;;5.55;;
34505;SDS011;20748;42.632;23.198;2023-04-07T08:36:12;6.43;;;3.75;;
34505;SDS011;20748;42.632;23.198;2023-04-07T08:38:45;9.55;;;4.25;;
34505;SDS011;20748;42.632;23.198;2023-04-07T08:41:20;8.40;;;3.22;;
34505;SDS011;20748;42.632;23.198;2023-04-07T08:56:37;5.93;;;3.00;;
34505;SDS011;20748;42.632;23.198;2023-04-07T08:59:12;7.05;;;2.50;;
34505;SDS011;20748;42.632;23.198;2023-04-07T09:06:53;10.65;;;4.68;;
34505;SDS011;20748;42.632;23.198;2023-04-07T09:09:26;7.75;;;3.50;;
34505;SDS011;20748;42.632;23.198;2023-04-07T09:11:58;8.23;;;3.45;;
34505;SDS011;20748;42.632;23.198;2023-04-07T09:14:31;6.63;;;3.53;;
34505;SDS011;20748;42.632;23.198;2023-04-07T09:17:03;8.50;;;4.07;;
34505;SDS011;20748;42.632;23.198;2023-04-07T09:19:36;8.48;;;4.18;;
34505;SDS011;20748;42.632;23.198;2023-04-07T09:22:09;7.38;;;3.38;;
34505;SDS011;20748;42.632;23.198;2023-04-07T09:24:44;6.70;;;3.72;;
34505;SDS011;20748;42.632;23.198;2023-04-07T09:27:17;7.45;;;3.55;;
34505;SDS011;20748;42.632;23.198;2023-04-07T09:29:50;8.75;;;3.33;;
34505;SDS011;20748;42.632;23.198;2023-04-07T09:32:43;8.20;;;3.92;;
34505;SDS011;20748;42.632;23.198;2023-04-07T09:35:15;8.55;;;3.97;;
34505;SDS011;20748;42.632;23.198;2023-04-07T09:38:00;12.50;;;4.45;;
34505;SDS011;20748;42.632;23.198;2023-04-07T09:40:34;12.63;;;4.25;;
34505;SDS011;20748;42.632;23.198;2023-04-07T09:43:13;6.05;;;3.42;;
34505;SDS011;20748;42.632;23.198;2023-04-07T09:45:46;5.13;;;3.05;;
34505;SDS011;20748;42.632;23.198;2023-04-07T09:48:19;9.40;;;3.88;;
34505;SDS011;20748;42.632;23.198;2023-04-07T09:50:52;6.43;;;3.90;;
34505;SDS011;20748;42.632;23.198;2023-04-07T09:53:44;6.68;;;3.90;;
34505;SDS011;20748;42.632;23.198;2023-04-07T09:56:19;8.40;;;3.65;;
34505;SDS011;20748;42.632;23.198;2023-04-07T09:58:53;7.43;;;3.85;;
34505;SDS011;20748;42.632;23.198;2023-04-07T10:01:26;5.50;;;3.35;;
34505;SDS011;20748;42.632;23.198;2023-04-07T10:03:58;5.90;;;3.25;;
34505;SDS011;20748;42.632;23.198;2023-04-07T10:06:31;7.53;;;3.72;;
34505;SDS011;20748;42.632;23.198;2023-04-07T10:09:04;8.00;;;3.97;;
34505;SDS011;20748;42.632;23.198;2023-04-07T10:11:38;5.35;;;3.10;;
34505;SDS011;20748;42.632;23.198;2023-04-07T10:14:11;6.40;;;3.33;;
34505;SDS011;20748;42.632;23.198;2023-04-07T10:16:45;7.35;;;3.25;;
34505;SDS011;20748;42.632;23.198;2023-04-07T10:19:19;12.00;;;3.78;;
34505;SDS011;20748;42.632;23.198;2023-04-07T10:21:52;8.43;;;4.00;;
34505;SDS011;20748;42.632;23.198;2023-04-07T10:24:32;8.10;;;3.97;;
34505;SDS011;20748;42.632;23.198;2023-04-07T10:27:17;8.35;;;4.57;;
34505;SDS011;20748;42.632;23.198;2023-04-07T10:29:53;9.25;;;4.93;;
34505;SDS011;20748;42.632;23.198;2023-04-07T10:32:28;7.70;;;3.75;;
34505;SDS011;20748;42.632;23.198;2023-04-07T10:35:01;7.07;;;3.80;;
34505;SDS011;20748;42.632;23.198;2023-04-07T10:37:33;6.97;;;3.70;;
34505;SDS011;20748;42.632;23.198;2023-04-07T10:40:26;17.05;;;6.05;;
34505;SDS011;20748;42.632;23.198;2023-04-07T10:42:59;9.55;;;5.43;;
34505;SDS011;20748;42.632;23.198;2023-04-07T10:45:54;10.80;;;4.20;;
34505;SDS011;20748;42.632;23.198;2023-04-07T10:48:29;6.95;;;3.58;;
34505;SDS011;20748;42.632;23.198;2023-04-07T10:51:16;7.97;;;4.25;;
34505;SDS011;20748;42.632;23.198;2023-04-07T11:02:53;7.30;;;4.10;;
34505;SDS011;20748;42.632;23.198;2023-04-07T11:05:26;7.03;;;3.53;;
34505;SDS011;20748;42.632;23.198;2023-04-07T11:07:58;8.10;;;4.40;;
34505;SDS011;20748;42.632;23.198;2023-04-07T11:10:35;8.20;;;4.35;;
34505;SDS011;20748;42.632;23.198;2023-04-07T11:13:09;9.80;;;3.78;;
34505;SDS011;20748;42.632;23.198;2023-04-07T11:15:42;8.20;;;4.32;;
34505;SDS011;20748;42.632;23.198;2023-04-07T11:18:15;8.80;;;3.80;;
34505;SDS011;20748;42.632;23.198;2023-04-07T11:20:50;7.25;;;3.63;;
34505;SDS011;20748;42.632;23.198;2023-04-07T11:23:24;7.32;;;3.72;;
34505;SDS011;20748;42.632;23.198;2023-04-07T11:25:58;4.63;;;3.25;;
34505;SDS011;20748;42.632;23.198;2023-04-07T11:28:32;4.80;;;3.05;;
34505;SDS011;20748;42.632;23.198;2023-04-07T11:31:05;8.05;;;3.78;;
34505;SDS011;20748;42.632;23.198;2023-04-07T11:33:38;7.32;;;3.95;;
34505;SDS011;20748;42.632;23.198;2023-04-07T11:36:11;6.10;;;3.45;;
34505;SDS011;20748;42.632;23.198;2023-04-07T11:38:43;8.98;;;4.88;;
34505;SDS011;20748;42.632;23.198;2023-04-07T11:41:18;6.07;;;3.33;;
34505;SDS011;20748;42.632;23.198;2023-04-07T11:44:02;4.97;;;3.10;;
34505;SDS011;20748;42.632;23.198;2023-04-07T11:46:36;13.60;;;3.90;;
34505;SDS011;20748;42.632;23.198;2023-04-07T11:49:23;14.23;;;5.30;;
34505;SDS011;20748;42.632;23.198;2023-04-07T11:51:58;5.28;;;3.42;;
34505;SDS011;20748;42.632;23.198;2023-04-07T11:54:38;9.85;;;5.03;;
34505;SDS011;20748;42.632;23.198;2023-04-07T11:57:12;7.18;;;4.50;;
34505;SDS011;20748;42.632;23.198;2023-04-07T11:59:45;8.15;;;3.60;;
34505;SDS011;20748;42.632;23.198;2023-04-07T12:02:29;8.38;;;3.72;;
34505;SDS011;20748;42.632;23.198;2023-04-07T12:05:02;5.20;;;3.70;;
34505;SDS011;20748;42.632;23.198;2023-04-07T12:07:35;6.15;;;3.60;;
34505;SDS011;20748;42.632;23.198;2023-04-07T12:10:18;11.38;;;3.80;;
34505;SDS011;20748;42.632;23.198;2023-04-07T12:12:51;6.10;;;3.78;;
34505;SDS011;20748;42.632;23.198;2023-04-07T12:15:24;5.60;;;3.30;;
34505;SDS011;20748;42.632;23.198;2023-04-07T12:17:56;8.48;;;3.90;;
34505;SDS011;20748;42.632;23.198;2023-04-07T12:20:29;5.10;;;3.40;;
34505;SDS011;20748;42.632;23.198;2023-04-07T12:23:01;6.05;;;4.20;;
34505;SDS011;20748;42.632;23.198;2023-04-07T12:25:34;6.53;;;3.60;;
34505;SDS011;20748;42.632;23.198;2023-04-07T12:28:06;7.95;;;3.95;;
34505;SDS011;20748;42.632;23.198;2023-04-07T12:30:39;8.30;;;3.55;;
34505;SDS011;20748;42.632;23.198;2023-04-07T12:33:12;9.18;;;3.90;;
34505;SDS011;20748;42.632;23.198;2023-04-07T12:35:44;5.50;;;3.33;;
34505;SDS011;20748;42.632;23.198;2023-04-07T12:38:17;5.72;;;3.25;;
34505;SDS011;20748;42.632;23.198;2023-04-07T12:40:49;5.72;;;3.30;;
34505;SDS011;20748;42.632;23.198;2023-04-07T12:43:23;5.63;;;3.92;;
34505;SDS011;20748;42.632;23.198;2023-04-07T12:45:56;5.55;;;3.22;;
34505;SDS011;20748;42.632;23.198;2023-04-07T12:48:28;6.78;;;3.78;;
34505;SDS011;20748;42.632;23.198;2023-04-07T12:51:01;5.32;;;3.42;;
34505;SDS011;20748;42.632;23.198;2023-04-07T12:53:33;7.22;;;3.28;;
34505;SDS011;20748;42.632;23.198;2023-04-07T12:56:06;9.93;;;3.97;;
34505;SDS011;20748;42.632;23.198;2023-04-07T12:58:38;6.18;;;3.42;;
34505;SDS011;20748;42.632;23.198;2023-04-07T13:01:12;8.05;;;4.72;;
34505;SDS011;20748;42.632;23.198;2023-04-07T13:03:44;7.13;;;3.35;;
34505;SDS011;20748;42.632;23.198;2023-04-07T13:06:17;7.43;;;3.83;;
34505;SDS011;20748;42.632;23.198;2023-04-07T13:08:50;7.55;;;3.58;;
34505;SDS011;20748;42.632;23.198;2023-04-07T13:11:22;10.55;;;3.78;;
34505;SDS011;20748;42.632;23.198;2023-04-07T13:13:55;7.25;;;3.70;;
34505;SDS011;20748;42.632;23.198;2023-04-07T13:16:31;8.25;;;4.30;;
34505;SDS011;20748;42.632;23.198;2023-04-07T13:19:03;6.25;;;3.35;;
34505;SDS011;20748;42.632;23.198;2023-04-07T13:21:35;8.27;;;3.38;;
34505;SDS011;20748;42.632;23.198;2023-04-07T13:24:18;6.50;;;2.67;;
34505;SDS011;20748;42.632;23.198;2023-04-07T13:26:52;7.03;;;3.20;;
34505;SDS011;20748;42.632;23.198;2023-04-07T13:29:24;6.88;;;3.35;;
34505;SDS011;20748;42.632;23.198;2023-04-07T13:32:03;7.57;;;4.03;;
34505;SDS011;20748;42.632;23.198;2023-04-07T13:34:37;7.47;;;4.88;;
34505;SDS011;20748;42.632;23.198;2023-04-07T13:37:10;7.57;;;4.07;;
34505;SDS011;20748;42.632;23.198;2023-04-07T13:39:42;11.48;;;5.82;;
34505;SDS011;20748;42.632;23.198;2023-04-07T13:42:14;7.43;;;3.83;;
34505;SDS011;20748;42.632;23.198;2023-04-07T13:44:47;8.30;;;4.07;;
34505;SDS011;20748;42.632;23.198;2023-04-07T13:47:21;9.00;;;4.10;;
34505;SDS011;20748;42.632;23.198;2023-04-07T13:49:55;7.88;;;4.78;;
34505;SDS011;20748;42.632;23.198;2023-04-07T13:52:27;7.78;;;5.07;;
34505;SDS011;20748;42.632;23.198;2023-04-07T13:55:00;6.85;;;4.47;;
34505;SDS011;20748;42.632;23.198;2023-04-07T13:57:34;7.35;;;4.13;;
34505;SDS011;20748;42.632;23.198;2023-04-07T14:00:07;8.75;;;4.72;;
34505;SDS011;20748;42.632;23.198;2023-04-07T14:02:40;8.30;;;4.88;;
34505;SDS011;20748;42.632;23.198;2023-04-07T14:05:13;8.40;;;4.38;;
34505;SDS011;20748;42.632;23.198;2023-04-07T14:07:45;7.97;;;4.20;;
34505;SDS011;20748;42.632;23.198;2023-04-07T14:10:18;9.48;;;4.85;;
34505;SDS011;20748;42.632;23.198;2023-04-07T14:12:50;8.77;;;4.75;;
34505;SDS011;20748;42.632;23.198;2023-04-07T14:15:22;5.72;;;4.10;;
34505;SDS011;20748;42.632;23.198;2023-04-07T14:17:55;7.90;;;4.55;;
34505;SDS011;20748;42.632;23.198;2023-04-07T14:20:28;8.02;;;4.15;;
34505;SDS011;20748;42.632;23.198;2023-04-07T14:23:00;8.23;;;5.18;;
34505;SDS011;20748;42.632;23.198;2023-04-07T14:25:32;7.72;;;5.30;;
34505;SDS011;20748;42.632;23.198;2023-04-07T14:28:05;8.93;;;4.63;;
34505;SDS011;20748;42.632;23.198;2023-04-07T14:30:38;9.50;;;4.40;;
34505;SDS011;20748;42.632;23.198;2023-04-07T14:33:11;7.40;;;4.47;;
34505;SDS011;20748;42.632;23.198;2023-04-07T14:35:44;8.13;;;4.60;;
34505;SDS011;20748;42.632;23.198;2023-04-07T14:38:16;11.98;;;5.97;;
34505;SDS011;20748;42.632;23.198;2023-04-07T14:40:49;11.13;;;6.95;;
34505;SDS011;20748;42.632;23.198;2023-04-07T14:43:21;8.90;;;5.07;;
34505;SDS011;20748;42.632;23.198;2023-04-07T14:45:54;8.88;;;5.35;;
34505;SDS011;20748;42.632;23.198;2023-04-07T14:48:27;7.68;;;4.32;;
34505;SDS011;20748;42.632;23.198;2023-04-07T14:50:59;6.43;;;4.30;;
34505;SDS011;20748;42.632;23.198;2023-04-07T14:53:41;7.55;;;4.53;;
34505;SDS011;20748;42.632;23.198;2023-04-07T14:56:14;8.65;;;4.78;;
34505;SDS011;20748;42.632;23.198;2023-04-07T14:58:46;8.65;;;4.95;;
34505;SDS011;20748;42.632;23.198;2023-04-07T15:01:18;12.20;;;6.18;;
34505;SDS011;20748;42.632;23.198;2023-04-07T15:03:51;9.75;;;5.20;;
34505;SDS011;20748;42.632;23.198;2023-04-07T15:06:24;7.78;;;5.20;;
34505;SDS011;20748;42.632;23.198;2023-04-07T15:08:57;9.57;;;5.47;;
34505;SDS011;20748;42.632;23.198;2023-04-07T15:11:29;11.02;;;5.63;;
34505;SDS011;20748;42.632;23.198;2023-04-07T15:14:03;9.13;;;5.32;;
34505;SDS011;20748;42.632;23.198;2023-04-07T15:16:37;11.73;;;6.20;;
34505;SDS011;20748;42.632;23.198;2023-04-07T15:19:10;11.38;;;6.28;;
34505;SDS011;20748;42.632;23.198;2023-04-07T15:21:42;11.70;;;5.28;;
34505;SDS011;20748;42.632;23.198;2023-04-07T15:24:14;11.13;;;5.75;;
34505;SDS011;20748;42.632;23.198;2023-04-07T15:26:47;9.85;;;5.45;;
34505;SDS011;20748;42.632;23.198;2023-04-07T15:29:20;7.03;;;4.72;;
34505;SDS011;20748;42.632;23.198;2023-04-07T15:32:00;8.55;;;5.82;;
34505;SDS011;20748;42.632;23.198;2023-04-07T15:34:33;12.63;;;5.57;;
34505;SDS011;20748;42.632;23.198;2023-04-07T15:37:05;6.90;;;4.72;;
34505;SDS011;20748;42.632;23.198;2023-04-07T15:39:38;8.65;;;5.30;;
34505;SDS011;20748;42.632;23.198;2023-04-07T15:42:11;11.63;;;5.82;;
34505;SDS011;20748;42.632;23.198;2023-04-07T15:44:43;10.10;;;6.22;;
34505;SDS011;20748;42.632;23.198;2023-04-07T15:47:15;11.10;;;6.03;;
34505;SDS011;20748;42.632;23.198;2023-04-07T15:49:48;12.88;;;6.47;;